Time;durP1;ratioP1;P1;durP2;ratioP2;P2;SDS_P1;SDS_P2;PMS_P1;PMS_P2;Temp;Humidity;BMP_temperature;BMP_pressure;BME280_temperature;BME280_humidity;BME280_pressure;Samples;Min_cycle;Max_cycle;Signal;HPM_P1;HPM_P2
2023/05/11 10:33:34;;;;;;;8.00;3.30;;;;;;;22.05;52.84;100288.73;177332;1264;58393;-62
2023/05/11 10:37:39;;;;;;;12.70;3.80;;;;;;;21.92;52.60;100288.05;184271;1240;43450;-62
2023/05/11 10:42:03;;;;;;;4.60;2.10;;;;;;;21.80;53.10;100281.37;184292;1241;58323;-62
2023/05/11 10:46:43;;;;;;;28.70;5.80;;;;;;;21.85;52.76;100281.21;184261;1240;44036;-61
2023/05/11 10:51:17;;;;;;;7.20;2.10;;;;;;;21.85;53.37;100279.73;184844;1241;43871;-62
2023/05/11 10:55:50;;;;;;;5.50;2.40;;;;;;;21.99;51.87;100282.42;184539;1241;45929;-62
2023/05/11 10:59:52;;;;;;;11.40;3.10;;;;;;;22.17;51.98;100274.90;184389;1244;43962;-61
2023/05/11 11:04:01;;;;;;;5.70;2.10;;;;;;;22.31;52.61;100275.06;184485;1241;58420;-61
2023/05/11 11:08:08;;;;;;;3.00;1.70;;;;;;;22.53;50.55;100276.16;184476;1240;46098;-61
2023/05/11 11:12:11;;;;;;;5.80;2.30;;;;;;;22.65;49.68;100273.77;184472;1240;44670;-61
2023/05/11 11:16:14;;;;;;;6.90;3.30;;;;;;;22.84;50.64;100268.03;184220;1239;43997;-61
2023/05/11 11:20:52;;;;;;;7.70;2.90;;;;;;;22.74;50.43;100269.44;184515;1240;45954;-61
2023/05/11 11:24:54;;;;;;;11.20;2.30;;;;;;;22.67;50.42;100271.71;184188;1240;58607;-61
2023/05/11 11:28:56;;;;;;;7.70;2.70;;;;;;;22.65;51.52;100271.42;184220;1240;44732;-61
2023/05/11 11:33:06;;;;;;;5.00;2.30;;;;;;;22.61;50.14;100275.92;184654;1239;44984;-61
2023/05/11 11:37:09;;;;;;;4.10;1.80;;;;;;;22.55;49.33;100276.23;184711;1240;43663;-60
2023/05/11 11:41:10;;;;;;;8.00;2.30;;;;;;;22.41;49.05;100276.94;184838;1240;45862;-60
2023/05/11 11:45:31;;;;;;;3.70;1.70;;;;;;;22.39;49.33;100279.73;184552;1241;58390;-61
2023/05/11 11:49:34;;;;;;;8.00;3.00;;;;;;;22.62;49.88;100278.09;184408;1242;45831;-61
2023/05/11 11:53:36;;;;;;;27.50;19.80;;;;;;;22.94;50.31;100273.66;184569;1241;44608;-61
2023/05/11 11:57:45;;;;;;;3.80;2.70;;;;;;;23.09;48.38;100278.09;184585;1240;45856;-61
2023/05/11 12:01:53;;;;;;;3.70;2.10;;;;;;;23.08;48.69;100274.54;184555;1240;43477;-60
2023/05/11 12:06:00;;;;;;;5.30;2.00;;;;;;;23.08;49.55;100279.13;184569;1241;58357;-61
2023/05/11 12:10:03;;;;;;;2.50;2.10;;;;;;;22.95;48.45;100279.55;184392;1241;43686;-61
2023/05/11 12:14:11;;;;;;;2.20;2.00;;;;;;;22.84;47.44;100275.11;184409;1239;45850;-60
2023/05/11 12:18:22;;;;;;;7.80;3.20;;;;;;;22.77;47.32;100275.33;184512;1241;43584;-60
2023/05/11 12:22:25;;;;;;;3.20;2.60;;;;;;;23.06;47.36;100271.37;184387;1240;43873;-60
2023/05/11 12:26:33;;;;;;;5.30;2.90;;;;;;;23.22;47.60;100269.91;184593;1240;58069;-60
2023/05/11 12:30:34;;;;;;;4.70;2.30;;;;;;;23.09;46.51;100270.08;184597;1239;44904;-61
2023/05/11 12:34:36;;;;;;;3.90;2.60;;;;;;;23.04;48.31;100270.20;184569;1239;44659;-60
2023/05/11 12:38:48;;;;;;;2.90;2.40;;;;;;;23.00;48.18;100265.86;184568;1241;43797;-60
2023/05/11 12:43:03;;;;;;;4.50;2.80;;;;;;;22.89;47.91;100265.10;184505;1239;43936;-60
2023/05/11 12:47:05;;;;;;;32.50;6.40;;;;;;;22.82;46.73;100254.84;184466;1243;58189;-61
2023/05/11 12:51:06;;;;;;;3.00;2.30;;;;;;;22.96;47.35;100252.55;184576;1239;43726;-60
2023/05/11 12:55:10;;;;;;;4.60;2.70;;;;;;;23.08;47.72;100249.50;184383;1240;43547;-61
2023/05/11 12:59:27;;;;;;;2.70;2.20;;;;;;;23.14;48.28;100248.24;184494;1241;44980;-61
2023/05/11 13:03:32;;;;;;;2.90;2.10;;;;;;;22.97;47.67;100240.57;184572;1239;45957;-61
2023/05/11 13:07:35;;;;;;;5.30;2.10;;;;;;;23.11;48.99;100237.52;184278;1240;58232;-60
2023/05/11 13:11:37;;;;;;;4.20;2.40;;;;;;;23.29;49.88;100235.19;184067;1239;45910;-60
2023/05/11 13:15:57;;;;;;;3.90;2.90;;;;;;;23.36;46.93;100232.63;184042;1240;44113;-60
2023/05/11 13:20:23;;;;;;;8.80;5.90;;;;;;;23.33;47.48;100230.05;184113;1243;46105;-61
2023/05/11 13:24:25;;;;;;;4.60;2.30;;;;;;;23.28;46.51;100223.38;184267;1240;45785;-61
2023/05/11 13:28:27;;;;;;;3.40;2.10;;;;;;;23.21;47.72;100220.48;184455;1240;58314;-61
2023/05/11 13:32:29;;;;;;;3.00;2.10;;;;;;;23.31;47.32;100214.67;184433;1239;45902;-61
2023/05/11 13:36:31;;;;;;;2.80;1.90;;;;;;;23.43;46.59;100210.23;184405;1239;45954;-61
2023/05/11 13:40:37;;;;;;;2.70;2.10;;;;;;;23.45;46.10;100205.25;184191;1240;44951;-61
2023/05/11 13:44:41;;;;;;;11.90;4.10;;;;;;;23.45;47.65;100206.68;184161;1240;46068;-61
2023/05/11 13:49:14;;;;;;;6.70;1.80;;;;;;;23.39;45.96;100205.27;184544;1239;58957;-62
2023/05/11 13:53:16;;;;;;;3.00;1.80;;;;;;;23.20;44.76;100203.54;184701;1239;44412;-61
2023/05/11 14:03:03;;;;;;;4.20;2.60;;;;;;;22.53;48.33;100199.18;184306;1239;45951;-61
2023/05/11 14:07:05;;;;;;;4.90;2.60;;;;;;;22.20;49.83;100204.02;184317;1243;46039;-61
2023/05/11 14:11:09;;;;;;;4.20;2.40;;;;;;;22.10;51.04;100196.62;184442;1240;57717;-61
2023/05/11 14:15:11;;;;;;;3.20;2.30;;;;;;;22.24;49.77;100193.45;184458;1240;45092;-60
2023/05/11 14:19:12;;;;;;;3.40;1.70;;;;;;;22.27;50.00;100192.95;184331;1241;45814;-60
2023/05/11 14:23:14;;;;;;;3.70;2.10;;;;;;;22.21;47.53;100190.36;184419;1243;44894;-59
2023/05/11 14:27:16;;;;;;;3.20;1.80;;;;;;;22.33;46.61;100187.33;184553;1239;43652;-60
2023/05/11 14:31:23;;;;;;;3.30;2.30;;;;;;;22.44;47.79;100180.64;184716;1239;58513;-59
2023/05/11 14:35:25;;;;;;;3.20;2.10;;;;;;;22.65;46.79;100178.01;184475;1240;44761;-60
2023/05/11 14:39:31;;;;;;;5.50;3.40;;;;;;;22.86;45.66;100174.06;184553;1243;44688;-60
2023/05/11 14:43:33;;;;;;;26.50;5.30;;;;;;;23.05;44.35;100174.14;184704;1239;43743;-59
2023/05/11 14:47:35;;;;;;;3.80;2.40;;;;;;;22.80;47.54;100174.75;184527;1240;44992;-59
2023/05/11 14:51:37;;;;;;;8.40;3.30;;;;;;;22.44;50.36;100176.31;184330;1239;57329;-60
2023/05/11 14:55:41;;;;;;;7.00;2.90;;;;;;;22.24;50.97;100177.27;184360;1239;45848;-60
2023/05/11 14:59:43;;;;;;;4.20;3.50;;;;;;;22.03;52.46;100177.77;184392;1240;45226;-60
2023/05/11 15:03:59;;;;;;;7.10;3.80;;;;;;;21.80;53.58;100185.77;184668;1239;44959;-60
2023/05/11 15:08:01;;;;;;;5.30;2.80;;;;;;;21.56;54.04;100186.14;184612;1239;43540;-60
2023/05/11 15:12:03;;;;;;;6.10;3.80;;;;;;;21.41;55.63;100186.08;184368;1240;57509;-59
2023/05/11 15:16:07;;;;;;;12.00;3.20;;;;;;;21.37;56.32;100184.27;184601;1240;43858;-59
2023/05/11 15:20:10;;;;;;;8.10;3.90;;;;;;;21.55;57.34;100183.98;184580;1240;43451;-60
2023/05/11 15:24:12;;;;;;;6.00;4.10;;;;;;;22.00;54.35;100173.47;184481;1239;44841;-60
2023/05/11 15:28:14;;;;;;;4.60;3.90;;;;;;;22.36;49.20;100167.92;184509;1239;45371;-60
2023/05/11 15:32:16;;;;;;;7.10;4.80;;;;;;;22.67;48.51;100167.83;184624;1239;57573;-60
2023/05/11 15:36:19;;;;;;;7.10;3.80;;;;;;;22.69;46.96;100174.09;184315;1240;45891;-60
2023/05/11 15:40:21;;;;;;;6.50;3.60;;;;;;;22.64;51.57;100178.13;184284;1240;44628;-60
2023/05/11 15:44:23;;;;;;;63.70;39.00;;;;;;;22.59;53.77;100179.60;184514;1240;43473;-60
2023/05/11 15:48:24;;;;;;;86.60;63.60;;;;;;;22.62;53.30;100176.67;184414;1240;45913;-60
2023/05/11 15:52:55;;;;;;;90.40;67.60;;;;;;;22.66;51.62;100174.84;184561;1240;57469;-60
2023/05/11 15:56:58;;;;;;;270.90;211.10;;;;;;;22.57;51.45;100180.84;184619;1240;46066;-60
2023/05/11 16:01:02;;;;;;;176.80;115.90;;;;;;;22.54;51.87;100183.84;184706;1239;43787;-59
2023/05/11 16:05:04;;;;;;;178.00;104.80;;;;;;;22.45;50.56;100181.60;184740;1239;44528;-59
2023/05/11 16:09:08;;;;;;;358.30;229.50;;;;;;;22.35;51.07;100176.79;184531;1239;45873;-60
2023/05/11 16:13:13;;;;;;;91.30;55.90;;;;;;;22.26;51.30;100181.19;184680;1239;58451;-60
2023/05/11 16:17:15;;;;;;;32.70;16.20;;;;;;;22.08;50.97;100184.52;184380;1240;45941;-60
2023/05/11 16:21:18;;;;;;;9.80;5.90;;;;;;;21.82;51.54;100182.83;184377;1240;45919;-59
2023/05/11 16:25:21;;;;;;;18.60;10.30;;;;;;;21.63;52.54;100176.32;184248;1240;44896;-60
2023/05/11 16:29:25;;;;;;;80.90;23.80;;;;;;;21.62;52.14;100180.35;184332;1239;43919;-59
2023/05/11 16:33:27;;;;;;;84.20;19.30;;;;;;;21.64;52.77;100178.86;184334;1240;59925;-59
2023/05/11 16:37:29;;;;;;;12.10;8.10;;;;;;;21.69;52.52;100183.73;184493;1239;43510;-60
2023/05/11 17:03:24;;;;;;;8.80;4.50;;;;;;;21.17;54.10;100186.30;184551;1240;45913;-60
2023/05/11 17:07:27;;;;;;;10.90;6.70;;;;;;;20.88;54.66;100188.92;184567;1238;43586;-60
2023/05/11 17:11:29;;;;;;;69.90;37.30;;;;;;;20.68;54.79;100187.63;184573;1238;44849;-60
2023/05/11 17:15:50;;;;;;;24.50;14.60;;;;;;;20.54;55.30;100186.71;184619;1238;44836;-60
2023/05/11 17:19:51;;;;;;;402.80;216.60;;;;;;;20.39;56.74;100186.02;184617;1240;58342;-60
2023/05/11 17:24:09;;;;;;;100.40;46.60;;;;;;;20.29;57.25;100187.58;184602;1238;46048;-61
2023/05/11 17:28:11;;;;;;;15.00;7.40;;;;;;;20.20;56.46;100186.63;184556;1238;46119;-61
2023/05/11 17:32:19;;;;;;;6.10;4.20;;;;;;;20.11;56.22;100187.29;184616;1238;45905;-60
2023/05/11 17:36:23;;;;;;;5.20;3.60;;;;;;;20.00;56.35;100194.77;184621;1238;43696;-61
2023/05/11 17:40:26;;;;;;;28.00;13.40;;;;;;;19.87;56.68;100193.13;184754;1238;59169;-61
2023/05/11 17:44:28;;;;;;;8.90;6.40;;;;;;;19.74;56.46;100197.75;184563;1238;45076;-60
2023/05/11 17:48:30;;;;;;;11.90;5.90;;;;;;;19.61;56.32;100201.09;184610;1238;45235;-61
2023/05/11 17:52:32;;;;;;;6.60;4.40;;;;;;;19.46;56.13;100207.41;184593;1238;45930;-61
2023/05/11 17:56:34;;;;;;;4.80;3.60;;;;;;;19.30;56.12;100210.91;184598;1238;43545;-60
2023/05/11 18:00:36;;;;;;;22.70;10.90;;;;;;;19.18;56.35;100207.33;184686;1238;58115;-60
2023/05/11 18:04:47;;;;;;;180.70;93.40;;;;;;;19.08;56.51;100215.77;184708;1238;43495;31
2023/05/11 18:08:49;;;;;;;276.30;152.90;;;;;;;19.01;56.91;100214.45;182571;1240;46205;-86
2023/05/11 18:12:51;;;;;;;390.30;223.90;;;;;;;18.93;57.49;100215.45;182329;1242;46200;-87
2023/05/11 18:16:53;;;;;;;261.10;142.30;;;;;;;18.83;57.85;100220.56;183041;1238;44216;-85
2023/05/11 18:20:55;;;;;;;51.10;28.70;;;;;;;18.75;57.68;100226.39;182374;1238;59369;-89
2023/05/11 18:24:57;;;;;;;32.40;15.30;;;;;;;18.68;57.66;100230.63;182355;1238;44594;-89
2023/05/11 18:29:00;;;;;;;39.10;21.10;;;;;;;18.57;58.03;100234.13;182765;1234;46008;-89
2023/05/11 18:33:02;;;;;;;20.50;9.80;;;;;;;18.47;58.10;100236.31;183049;1234;46097;-90
2023/05/11 18:37:04;;;;;;;8.00;5.40;;;;;;;18.34;58.36;100238.68;183427;1237;46101;-89
2023/05/11 18:41:07;;;;;;;14.00;5.90;;;;;;;18.22;58.35;100247.05;182934;1234;59304;-90
2023/05/11 18:45:09;;;;;;;13.50;7.80;;;;;;;18.11;58.35;100250.41;182835;1235;46073;-90
2023/05/11 18:49:11;;;;;;;13.30;7.90;;;;;;;18.04;58.46;100255.52;183345;1234;45980;-90
2023/05/11 18:53:14;;;;;;;11.50;7.70;;;;;;;17.99;58.83;100258.05;182661;1234;46088;-89
2023/05/11 18:57:18;;;;;;;8.00;7.00;;;;;;;17.91;59.05;100260.54;182800;1234;46075;-89
2023/05/11 19:01:20;;;;;;;8.20;6.20;;;;;;;17.84;59.12;100263.42;183048;1234;60210;-90
2023/05/11 19:05:22;;;;;;;6.00;5.40;;;;;;;17.77;59.54;100272.56;183337;1235;46425;-89
2023/05/11 19:09:30;;;;;;;11.40;5.20;;;;;;;17.69;60.09;100280.73;183174;1234;46096;-91
2023/05/11 19:18:16;;;;;;;11.50;8.80;;;;;;;17.51;61.04;100285.95;185726;1235;43378;-62
2023/05/11 19:22:23;;;;;;;15.80;9.10;;;;;;;17.43;61.41;100287.61;185267;1235;58393;-62
2023/05/11 19:26:26;;;;;;;16.40;10.00;;;;;;;17.35;62.12;100289.17;185286;1235;45976;-63
2023/05/11 19:30:40;;;;;;;14.50;10.60;;;;;;;17.29;62.64;100295.36;185209;1237;45884;-63
2023/05/11 19:34:42;;;;;;;24.90;14.80;;;;;;;17.20;63.23;100297.95;185179;1234;45283;-63
2023/05/11 19:38:43;;;;;;;24.70;15.90;;;;;;;17.14;63.67;100301.99;185176;1236;45984;-63
2023/05/11 19:42:45;;;;;;;18.60;12.30;;;;;;;17.05;63.99;100300.34;185209;1235;59113;-63
2023/05/11 19:46:47;;;;;;;17.80;10.70;;;;;;;16.96;63.74;100304.66;185274;1237;44560;-63
2023/05/11 19:50:49;;;;;;;17.50;11.70;;;;;;;16.85;63.83;100305.81;185221;1234;45257;-62
2023/05/11 19:54:52;;;;;;;12.40;8.60;;;;;;;16.76;64.33;100303.96;185340;1234;45236;-61
2023/05/11 19:58:54;;;;;;;12.90;9.70;;;;;;;16.68;64.71;100305.35;185224;1234;45993;-62
2023/05/11 20:03:02;;;;;;;12.30;9.70;;;;;;;16.60;64.70;100308.37;185263;1234;58380;-63
2023/05/11 20:07:06;;;;;;;15.00;10.60;;;;;;;16.50;65.01;100305.69;185237;1235;44815;-62
2023/05/11 20:11:08;;;;;;;24.40;12.40;;;;;;;16.37;64.74;100307.88;185194;1238;45985;-62
2023/05/11 20:15:13;;;;;;;11.50;8.80;;;;;;;16.26;64.72;100309.24;185222;1237;45995;-62
2023/05/11 20:19:15;;;;;;;9.60;7.20;;;;;;;16.15;64.44;100312.36;185221;1234;44846;-62
2023/05/11 20:24:15;;;;;;;10.30;6.00;;;;;;;16.01;63.89;100313.59;185522;1238;59651;-62
2023/05/11 20:28:20;;;;;;;8.50;7.20;;;;;;;15.88;64.25;100316.02;185498;1235;43789;-62
2023/05/11 20:32:40;;;;;;;7.20;5.80;;;;;;;15.76;64.55;100319.02;185326;1235;43456;-61
2023/05/11 20:37:02;;;;;;;9.20;7.00;;;;;;;15.60;64.82;100317.23;185184;1238;44701;-63
2023/05/11 20:41:11;;;;;;;16.60;10.00;;;;;;;15.46;65.06;100318.50;185343;1235;44732;-62
2023/05/11 20:45:13;;;;;;;25.20;13.80;;;;;;;15.29;65.34;100322.70;185295;1236;58326;-62
2023/05/11 20:49:15;;;;;;;30.70;15.30;;;;;;;15.17;65.72;100321.27;185332;1238;46057;-62
2023/05/11 20:53:29;;;;;;;25.50;14.90;;;;;;;15.03;65.95;100317.80;185256;1235;43547;-62
2023/05/11 20:57:36;;;;;;;25.60;14.90;;;;;;;14.91;66.11;100314.45;185235;1234;43623;-62
2023/05/11 21:01:38;;;;;;;23.30;12.00;;;;;;;14.77;66.12;100318.59;185319;1238;43447;-62
2023/05/11 21:05:40;;;;;;;23.00;13.40;;;;;;;14.66;66.41;100318.93;185263;1235;58389;-62
2023/05/11 21:09:48;;;;;;;38.20;21.20;;;;;;;14.56;66.56;100319.10;185246;1235;46067;-62
2023/05/11 21:13:49;;;;;;;31.80;15.40;;;;;;;14.42;66.74;100327.12;185234;1235;44640;-62
2023/05/11 21:17:52;;;;;;;28.80;16.00;;;;;;;14.34;66.94;100331.46;185263;1235;45976;-62
2023/05/11 21:21:53;;;;;;;30.80;16.70;;;;;;;14.25;67.36;100330.39;185375;1235;44636;-62
2023/05/11 21:25:57;;;;;;;39.70;22.40;;;;;;;14.15;67.37;100333.48;185296;1236;58401;-62
2023/05/11 21:29:59;;;;;;;46.00;23.70;;;;;;;14.08;67.56;100338.95;185287;1238;43698;-62
2023/05/11 21:34:00;;;;;;;42.70;23.60;;;;;;;14.01;68.00;100338.84;185179;1235;43732;-61
2023/05/11 21:38:30;;;;;;;36.70;18.90;;;;;;;13.92;68.14;100338.84;184989;1235;46052;-61
2023/05/11 21:42:34;;;;;;;40.50;23.00;;;;;;;13.79;68.42;100336.64;185225;1238;46179;-62
2023/05/11 21:46:36;;;;;;;13.20;9.50;;;;;;;13.71;68.61;100342.73;185221;1235;57843;-62
2023/05/11 21:50:38;;;;;;;9.00;6.20;;;;;;;13.62;69.13;100342.90;185337;1235;45966;-62
2023/05/11 21:55:30;;;;;;;16.90;9.30;;;;;;;13.46;69.92;100344.33;185311;1235;45947;-62
2023/05/11 21:59:32;;;;;;;9.40;7.00;;;;;;;13.23;70.81;100347.35;185352;1236;44546;-62
2023/05/11 22:04:26;;;;;;;8.80;7.50;;;;;;;13.05;70.79;100350.25;185284;1235;46000;-62
2023/05/11 22:08:28;;;;;;;7.60;5.50;;;;;;;12.88;72.00;100355.09;185303;1234;59115;-62
2023/05/11 22:12:30;;;;;;;7.50;5.60;;;;;;;12.79;72.34;100357.39;185254;1235;46034;-62
2023/05/11 22:16:31;;;;;;;8.60;6.80;;;;;;;12.74;73.35;100362.98;185356;1239;43625;-62
2023/05/11 22:20:33;;;;;;;8.20;6.60;;;;;;;12.67;73.11;100361.65;185475;1235;45952;-62
2023/05/11 22:25:29;;;;;;;9.00;7.30;;;;;;;12.62;73.33;100364.61;185337;1235;43743;-62
2023/05/11 22:29:30;;;;;;;13.70;9.20;;;;;;;12.52;73.94;100361.73;185186;1235;59393;-62
2023/05/11 22:33:32;;;;;;;10.30;8.20;;;;;;;12.45;73.87;100363.92;180868;1235;5648292;-62
2023/05/11 22:37:33;;;;;;;8.50;6.70;;;;;;;12.36;74.59;100368.80;185334;1235;58707;-62
2023/05/11 22:41:43;;;;;;;16.70;9.50;;;;;;;12.30;74.50;100369.46;185342;1235;44717;-62
2023/05/11 22:45:45;;;;;;;14.20;9.20;;;;;;;12.27;74.97;100369.71;185295;1235;44955;-62
2023/05/11 22:49:55;;;;;;;21.20;12.90;;;;;;;12.20;75.59;100372.29;185246;1235;43691;-62
2023/05/11 22:53:56;;;;;;;31.60;16.30;;;;;;;12.10;76.00;100378.11;185375;1235;46069;-62
2023/05/11 22:57:58;;;;;;;29.90;17.60;;;;;;;11.99;76.21;100375.72;185306;1235;57162;-62
2023/05/11 23:02:02;;;;;;;27.10;17.10;;;;;;;11.86;76.33;100375.55;185199;1235;43710;-62
2023/05/11 23:06:04;;;;;;;26.50;15.30;;;;;;;11.79;76.39;100377.41;185242;1238;45943;-62
2023/05/11 23:10:10;;;;;;;41.50;20.80;;;;;;;11.79;77.02;100382.22;185331;1235;46055;-62
2023/05/11 23:14:11;;;;;;;32.90;17.00;;;;;;;11.74;77.26;100386.56;185179;1238;44858;-62
2023/05/11 23:18:14;;;;;;;18.10;11.30;;;;;;;11.65;77.43;100389.20;185179;1234;59236;-62
2023/05/11 23:22:17;;;;;;;12.30;8.40;;;;;;;11.58;77.11;100387.48;185254;1235;46030;-62
2023/05/11 23:26:18;;;;;;;28.20;15.50;;;;;;;11.56;76.57;100388.51;185245;1235;45915;-62
2023/05/11 23:30:22;;;;;;;22.00;11.00;;;;;;;11.54;76.95;100391.40;185299;1235;43546;-62
2023/05/11 23:34:24;;;;;;;11.80;8.80;;;;;;;11.46;76.91;100392.92;185288;1235;45995;-62
2023/05/11 23:38:26;;;;;;;12.50;8.70;;;;;;;11.39;76.77;100390.66;185230;1235;58377;-62
2023/05/11 23:42:29;;;;;;;14.40;9.80;;;;;;;11.33;77.40;100390.14;185356;1234;45998;-62
2023/05/11 23:46:31;;;;;;;19.70;13.30;;;;;;;11.22;77.60;100390.13;185384;1235;44980;-62
2023/05/11 23:50:34;;;;;;;141.10;27.90;;;;;;;11.08;78.02;100388.47;185251;1235;43619;-62
2023/05/11 23:54:44;;;;;;;57.70;14.90;;;;;;;10.96;78.34;100386.59;185253;1235;45909;-62
2023/05/11 23:58:45;;;;;;;27.60;11.80;;;;;;;10.83;78.54;100384.04;185226;1235;58398;-62
